Main page
METAR-TAF:

METAR-TAF

Airports :

Farnborough, England

Farnborough Airport

latitude: 51-17N, longitude: 000-46W, elevation: 65 m

Current weather observation

The report was made 25 minutes ago, at 08:50 UTC
Wind 13 kt from the South/Southwest
Temperature 12°C
Humidity 88%
Pressure 1022 hPa
Visibility 10 km or more
Broken clouds at a height of 800 ft

METAR: EGLF 290850Z 21013KT 9999 BKN008 12/10 Q1022

Time: 10:15 (09:15 UTC)

Forecast

The report was made 13 minutes ago, at 09:02 UTC
Forecast valid from 29 at 09 UTC to 29 at 18 UTC
Wind 12 kt from the Southwest
Visibility 10 km or more
Broken clouds at a height of 800 ft
Becoming
from 29 at 09 UTC to 29 at 12 UTC
Broken clouds at a height of 2000 ft
Probability 30% :
Temporary
from 29 at 09 UTC to 29 at 11 UTC
Visibility: 9000 m

TAF: EGLF 290902Z 2909/2918 23012KT 9999 BKN008 BECMG 2909/2912 BKN020 PROB30 TEMPO 2909/2911 9000

Weather observations and forecasts of more than 4000 airports (METAR and TAF reports).

The available stations are represented by yellow and red dots on the map.

Hover mouse over dot to see the name of the station.

Then click to see weather observations and forecasts.

To change the map : click on the green buttons with a black cross to zoom in, on the green button with a dash to zoom out, or on the green arrows for adjacent maps.


METAR-TAF: